Time;durP1;ratioP1;P1;durP2;ratioP2;P2;SDS_P1;SDS_P2;PMS_P1;PMS_P2;Temp;Humidity;BMP_temperature;BMP_pressure;BME280_temperature;BME280_humidity;BME280_pressure;Samples;Min_cycle;Max_cycle;Signal;HPM_P1;HPM_P2
2022/03/26 00:00:16;;;;;;;98.25;50.33;;;6.10;99.90;;;;;;4964416;28;20504;-58
2022/03/26 00:02:41;;;;;;;110.30;55.63;;;6.10;99.90;;;;;;4963998;28;20070;-57
2022/03/26 00:05:07;;;;;;;102.15;52.38;;;6.00;99.90;;;;;;4963815;29;20047;-58
2022/03/26 00:07:33;;;;;;;106.28;57.05;;;6.00;99.90;;;;;;4964406;28;20047;-59
2022/03/26 00:09:59;;;;;;;108.05;55.55;;;6.10;99.90;;;;;;4963210;28;20047;-58
2022/03/26 00:12:25;;;;;;;118.00;61.92;;;6.10;99.90;;;;;;4964508;29;20186;-58
2022/03/26 00:14:54;;;;;;;111.65;57.55;;;6.10;99.90;;;;;;4963243;28;20116;-57
2022/03/26 00:17:19;;;;;;;119.65;62.35;;;6.10;99.90;;;;;;4964059;29;20055;-57
2022/03/26 00:19:45;;;;;;;108.30;59.05;;;6.10;99.90;;;;;;4963494;29;20074;-58
2022/03/26 00:22:11;;;;;;;114.38;60.13;;;6.00;99.90;;;;;;4963492;29;20526;-58
2022/03/26 00:24:37;;;;;;;152.07;77.93;;;6.00;99.90;;;;;;4962342;29;20047;-57
2022/03/26 00:27:03;;;;;;;140.60;74.38;;;6.00;99.90;;;;;;4963014;28;20051;-58
2022/03/26 00:29:28;;;;;;;129.18;68.35;;;5.90;99.90;;;;;;4963820;29;20059;-58
2022/03/26 00:31:54;;;;;;;137.85;69.10;;;5.90;99.90;;;;;;4962858;28;20058;-58
2022/03/26 00:34:20;;;;;;;159.88;79.80;;;5.90;99.90;;;;;;4946685;29;20133;-58
2022/03/26 00:36:46;;;;;;;153.40;77.22;;;5.90;99.90;;;;;;4963181;28;20073;-58
2022/03/26 00:39:11;;;;;;;158.07;81.03;;;5.80;99.90;;;;;;4963396;29;20071;-58
2022/03/26 00:41:37;;;;;;;175.82;84.43;;;5.70;99.90;;;;;;4963538;29;20154;-58
2022/03/26 00:44:03;;;;;;;166.60;80.70;;;5.70;99.90;;;;;;4962642;29;20051;-58
2022/03/26 00:46:29;;;;;;;168.30;80.88;;;5.70;99.90;;;;;;4963700;28;20050;-58
2022/03/26 00:48:58;;;;;;;166.73;84.13;;;5.60;99.90;;;;;;4962721;29;20524;-58
2022/03/26 00:51:24;;;;;;;156.05;80.10;;;5.70;99.90;;;;;;4963994;28;20095;-58
2022/03/26 00:53:50;;;;;;;159.38;79.30;;;5.80;99.90;;;;;;4961467;29;20327;-57
2022/03/26 00:56:16;;;;;;;148.68;77.22;;;5.80;99.90;;;;;;4963080;28;20043;-58
2022/03/26 00:58:41;;;;;;;145.73;74.63;;;5.70;99.90;;;;;;4963213;28;20122;-57
2022/03/26 01:01:08;;;;;;;154.52;76.53;;;5.70;99.90;;;;;;4962227;28;20043;-57
2022/03/26 01:03:34;;;;;;;145.65;73.72;;;5.60;99.90;;;;;;4963440;29;20039;-58
2022/03/26 01:06:00;;;;;;;150.68;75.00;;;5.50;99.90;;;;;;4962031;29;20040;-58
2022/03/26 01:08:26;;;;;;;137.38;69.28;;;5.50;99.90;;;;;;4963629;28;20070;-57
2022/03/26 01:10:51;;;;;;;137.55;69.57;;;5.50;99.90;;;;;;4962254;28;20066;-59
2022/03/26 01:13:17;;;;;;;140.07;70.25;;;5.50;99.90;;;;;;4962673;28;20132;-58
2022/03/26 01:15:43;;;;;;;140.45;70.53;;;5.50;99.90;;;;;;4962623;29;20049;-58
2022/03/26 01:18:09;;;;;;;131.57;68.18;;;5.50;99.90;;;;;;4962328;28;20511;-57
2022/03/26 01:20:35;;;;;;;132.48;66.30;;;5.40;99.90;;;;;;4963110;29;20075;-58
2022/03/26 01:23:02;;;;;;;133.82;69.20;;;5.30;99.90;;;;;;4961762;28;20452;-58
2022/03/26 01:25:28;;;;;;;142.43;71.30;;;5.30;99.90;;;;;;4963216;28;20050;-58
2022/03/26 01:27:53;;;;;;;145.18;72.75;;;5.30;99.90;;;;;;4960522;29;20043;-57
2022/03/26 01:30:19;;;;;;;142.10;70.13;;;5.30;99.90;;;;;;4962741;29;20070;-58
2022/03/26 01:32:45;;;;;;;141.23;69.93;;;5.30;99.90;;;;;;4962583;28;20095;-58
2022/03/26 01:35:12;;;;;;;133.25;67.93;;;5.20;99.90;;;;;;4961969;29;20050;-58
2022/03/26 01:37:38;;;;;;;132.50;65.28;;;5.10;99.90;;;;;;4962870;28;20070;-57
2022/03/26 01:40:05;;;;;;;133.55;68.47;;;5.10;99.90;;;;;;4961474;28;20388;-55
2022/03/26 01:42:32;;;;;;;133.95;69.22;;;5.10;99.90;;;;;;4962953;28;20362;-57
2022/03/26 01:44:57;;;;;;;129.68;67.43;;;5.00;99.90;;;;;;4960068;29;20054;-57
2022/03/26 01:47:23;;;;;;;123.75;65.20;;;5.00;99.90;;;;;;4960956;29;20047;-58
2022/03/26 01:49:50;;;;;;;127.45;67.22;;;5.10;99.90;;;;;;4961981;29;20090;-58
2022/03/26 01:52:16;;;;;;;122.00;63.72;;;5.00;99.90;;;;;;4962034;29;20043;-59
2022/03/26 01:54:43;;;;;;;127.72;65.47;;;5.00;99.90;;;;;;4962284;28;20075;-58
2022/03/26 01:57:10;;;;;;;119.13;62.10;;;5.00;99.90;;;;;;4959878;29;20522;-59
2022/03/26 01:59:37;;;;;;;116.68;59.47;;;5.00;99.90;;;;;;4962571;28;20321;-58
2022/03/26 02:02:05;;;;;;;108.55;59.15;;;5.10;99.90;;;;;;4961114;28;20389;-59
2022/03/26 02:04:34;;;;;;;110.97;57.35;;;4.90;99.90;;;;;;4962033;28;20047;-59
2022/03/26 02:07:02;;;;;;;112.13;56.05;;;4.80;99.90;;;;;;4961086;28;20058;-58
2022/03/26 02:09:33;;;;;;;96.68;50.10;;;4.80;99.90;;;;;;4961125;28;20051;-59
2022/03/26 02:11:59;;;;;;;82.25;44.47;;;4.70;99.90;;;;;;4961144;29;20466;-59
2022/03/26 02:14:25;;;;;;;78.82;42.47;;;4.70;99.90;;;;;;4961088;28;20055;-58
2022/03/26 02:16:51;;;;;;;75.78;43.55;;;5.00;99.90;;;;;;4962019;28;20094;-57
2022/03/26 02:19:16;;;;;;;75.50;43.08;;;4.70;99.90;;;;;;4959599;29;20051;-58
2022/03/26 02:21:43;;;;;;;76.20;41.83;;;4.70;99.90;;;;;;4961955;28;20631;-57
2022/03/26 02:24:09;;;;;;;82.10;45.22;;;4.70;99.90;;;;;;4961388;28;20109;-58
2022/03/26 02:26:35;;;;;;;86.60;47.50;;;4.70;99.90;;;;;;4961142;29;20078;-58
2022/03/26 02:29:12;;;;;;;103.72;52.08;;;4.70;99.90;;;;;;4961983;28;20049;-57
2022/03/26 02:31:38;;;;;;;102.32;54.15;;;4.70;99.90;;;;;;4960763;29;20418;-57
2022/03/26 02:34:05;;;;;;;119.95;57.85;;;4.70;99.90;;;;;;4961979;29;20043;-57
2022/03/26 02:36:32;;;;;;;128.63;62.63;;;4.70;99.90;;;;;;4960805;28;20460;-58
2022/03/26 02:38:58;;;;;;;140.18;67.68;;;4.70;99.90;;;;;;4960248;29;20047;-57
2022/03/26 02:41:23;;;;;;;150.07;71.53;;;4.70;99.90;;;;;;4961389;28;20050;-57
2022/03/26 02:43:49;;;;;;;153.43;72.40;;;4.70;99.90;;;;;;4960777;28;20054;-58
2022/03/26 02:46:15;;;;;;;149.43;72.47;;;4.70;99.90;;;;;;4961360;29;20047;-57
2022/03/26 02:48:43;;;;;;;137.80;65.60;;;4.70;99.90;;;;;;4960571;29;20054;-57
2022/03/26 02:51:09;;;;;;;132.60;64.72;;;4.70;99.90;;;;;;4961651;29;20055;-57
2022/03/26 02:53:35;;;;;;;140.15;66.32;;;4.60;99.90;;;;;;4960351;29;20036;-57
2022/03/26 02:56:00;;;;;;;138.82;65.78;;;4.60;99.90;;;;;;4961226;29;20054;-57
2022/03/26 02:58:26;;;;;;;142.57;66.68;;;4.60;99.90;;;;;;4960985;28;20523;-57
2022/03/26 03:00:52;;;;;;;135.10;67.20;;;4.50;99.90;;;;;;4960633;28;20039;-57
2022/03/26 03:03:18;;;;;;;131.10;64.95;;;4.60;99.90;;;;;;4961483;29;20053;-57
2022/03/26 03:05:46;;;;;;;129.88;64.65;;;4.70;99.90;;;;;;4959897;29;20063;-57
2022/03/26 03:08:16;;;;;;;132.77;63.97;;;4.60;99.90;;;;;;4961613;28;20449;-57
2022/03/26 03:10:44;;;;;;;135.32;66.78;;;4.60;99.90;;;;;;4960290;28;20043;-58
2022/03/26 03:13:10;;;;;;;122.97;63.42;;;4.50;99.90;;;;;;4961248;28;20074;-57
2022/03/26 03:15:36;;;;;;;123.75;63.50;;;4.70;99.90;;;;;;4960565;28;20051;-57
2022/03/26 03:18:02;;;;;;;122.18;61.85;;;4.50;99.90;;;;;;4960482;28;20158;-58
2022/03/26 03:20:29;;;;;;;130.45;65.90;;;4.60;99.90;;;;;;4965342;28;20074;-57
2022/03/26 03:22:57;;;;;;;143.18;69.85;;;4.60;99.90;;;;;;4962947;29;20047;-57
2022/03/26 03:25:26;;;;;;;139.77;65.82;;;4.50;99.90;;;;;;4965295;28;20043;-58
2022/03/26 03:27:52;;;;;;;136.25;63.88;;;4.50;99.90;;;;;;4964148;28;20051;-57
2022/03/26 03:30:17;;;;;;;139.27;65.53;;;4.50;99.90;;;;;;4965005;28;20069;-57
2022/03/26 03:32:44;;;;;;;141.27;69.10;;;4.50;99.90;;;;;;4964435;28;20126;-57
2022/03/26 03:35:10;;;;;;;128.75;61.03;;;4.40;99.90;;;;;;4964230;28;20051;-57
2022/03/26 03:37:39;;;;;;;136.20;65.57;;;4.30;99.90;;;;;;4965039;29;20431;-57
2022/03/26 03:40:07;;;;;;;135.27;64.50;;;4.30;99.90;;;;;;4963796;28;20073;-57
2022/03/26 03:42:33;;;;;;;135.10;68.18;;;4.30;99.90;;;;;;4963676;29;20051;-57
2022/03/26 03:44:59;;;;;;;126.18;61.03;;;4.30;99.90;;;;;;4962394;29;20059;-57
2022/03/26 03:47:24;;;;;;;137.65;63.60;;;4.30;99.90;;;;;;4964608;28;20050;-57
2022/03/26 03:49:51;;;;;;;124.72;59.47;;;4.30;99.90;;;;;;4964387;29;20126;-57
2022/03/26 03:52:17;;;;;;;127.15;59.78;;;4.30;99.90;;;;;;4963855;28;20078;-57
2022/03/26 03:54:43;;;;;;;113.72;56.47;;;4.30;99.90;;;;;;4964662;28;20047;-57
2022/03/26 03:57:09;;;;;;;114.72;57.10;;;4.40;99.90;;;;;;4963484;29;20081;-57
2022/03/26 03:59:35;;;;;;;109.50;57.88;;;4.30;99.90;;;;;;4964862;28;20047;-57
2022/03/26 04:02:00;;;;;;;107.20;55.42;;;4.30;99.90;;;;;;4963463;29;20082;-57
2022/03/26 04:04:26;;;;;;;100.40;53.15;;;4.20;99.90;;;;;;4964471;28;20170;-57
2022/03/26 04:06:51;;;;;;;104.65;55.65;;;4.20;99.90;;;;;;4962632;29;20051;-57
2022/03/26 04:09:17;;;;;;;106.78;54.72;;;4.00;99.90;;;;;;4963699;29;20075;-57
2022/03/26 04:11:43;;;;;;;103.43;53.65;;;4.10;99.90;;;;;;4964372;28;20039;-57
2022/03/26 04:14:08;;;;;;;105.63;55.08;;;4.10;99.90;;;;;;4963012;29;20102;-57
2022/03/26 04:16:34;;;;;;;107.10;55.83;;;4.10;99.90;;;;;;4964295;29;20079;-57
2022/03/26 04:19:00;;;;;;;105.05;55.38;;;4.10;99.90;;;;;;4963147;28;20043;-57
2022/03/26 04:21:26;;;;;;;104.93;54.95;;;4.10;99.90;;;;;;4964162;29;20058;-57
2022/03/26 04:23:51;;;;;;;102.43;52.80;;;4.10;99.90;;;;;;4963407;28;20039;-57
2022/03/26 04:26:17;;;;;;;104.88;55.58;;;4.10;99.90;;;;;;4963651;29;20110;-57
2022/03/26 04:28:43;;;;;;;107.50;54.78;;;4.20;99.90;;;;;;4963632;28;20578;-57
2022/03/26 04:31:09;;;;;;;102.15;52.50;;;4.10;99.90;;;;;;4962215;29;20134;-56
2022/03/26 04:33:35;;;;;;;114.95;55.72;;;4.00;99.90;;;;;;4964302;29;20050;-58
2022/03/26 04:36:01;;;;;;;103.20;52.67;;;4.00;99.90;;;;;;4961524;29;20408;-57
2022/03/26 04:38:26;;;;;;;111.20;54.63;;;4.00;99.90;;;;;;4964084;28;20127;-57
2022/03/26 04:40:52;;;;;;;124.82;61.42;;;4.00;99.90;;;;;;4961512;29;20043;-56
2022/03/26 04:43:20;;;;;;;131.55;63.53;;;4.10;99.90;;;;;;4946137;29;20109;-57
2022/03/26 04:45:46;;;;;;;128.50;60.78;;;4.20;99.90;;;;;;4963327;28;20075;-57
2022/03/26 04:48:13;;;;;;;120.47;59.00;;;4.20;99.90;;;;;;4961316;29;20098;-58
2022/03/26 04:50:39;;;;;;;112.60;57.22;;;4.20;99.90;;;;;;4963970;29;20062;-57
2022/03/26 04:53:05;;;;;;;113.93;56.22;;;4.10;99.90;;;;;;4961334;29;20074;-58
2022/03/26 04:55:30;;;;;;;112.30;57.42;;;4.10;99.90;;;;;;4963847;28;20109;-57
2022/03/26 04:57:56;;;;;;;112.55;57.33;;;4.10;99.90;;;;;;4962261;29;20480;-57
2022/03/26 05:00:22;;;;;;;115.22;56.88;;;4.10;99.90;;;;;;4961738;29;20050;-55
2022/03/26 05:02:48;;;;;;;104.25;53.33;;;4.10;99.90;;;;;;4963290;29;20051;-57
2022/03/26 05:05:14;;;;;;;105.22;52.95;;;4.10;99.90;;;;;;4962188;28;20106;-57
2022/03/26 05:07:46;;;;;;;102.22;52.83;;;4.10;99.90;;;;;;4963587;28;20054;-57
2022/03/26 05:10:32;;;;;;;121.68;60.45;;;4.10;99.90;;;;;;4962411;28;20106;-58
2022/03/26 05:12:58;;;;;;;116.50;57.03;;;4.00;99.90;;;;;;4963179;28;20043;-57
2022/03/26 05:15:27;;;;;;;119.57;57.05;;;4.10;99.90;;;;;;4962449;29;20043;-57
2022/03/26 05:17:54;;;;;;;121.68;59.53;;;3.90;99.90;;;;;;4962118;28;20039;-57
2022/03/26 05:20:20;;;;;;;110.93;54.53;;;4.10;99.90;;;;;;4963342;28;20051;-58
2022/03/26 05:22:47;;;;;;;115.70;55.83;;;4.10;99.90;;;;;;4962149;29;20098;-57
2022/03/26 05:25:14;;;;;;;112.75;54.78;;;4.00;99.90;;;;;;4963054;28;20078;-57
2022/03/26 05:27:49;;;;;;;116.13;56.83;;;3.90;99.90;;;;;;4962040;28;20127;-58
2022/03/26 05:30:16;;;;;;;115.28;56.88;;;3.90;99.90;;;;;;4962594;28;20063;-57
2022/03/26 05:32:42;;;;;;;110.47;53.25;;;4.00;99.90;;;;;;4962570;28;20046;-57
2022/03/26 05:35:13;;;;;;;114.25;57.78;;;4.10;99.90;;;;;;4962025;28;20054;-57
2022/03/26 05:37:46;;;;;;;109.93;54.33;;;4.00;99.90;;;;;;4962987;28;20373;-57
2022/03/26 05:40:13;;;;;;;110.88;54.97;;;4.00;99.90;;;;;;4961740;28;20039;-57
2022/03/26 05:42:39;;;;;;;99.25;51.83;;;4.00;99.90;;;;;;4961868;28;20047;-57
2022/03/26 05:45:07;;;;;;;106.75;57.42;;;4.00;99.90;;;;;;4962036;28;20051;-58
2022/03/26 05:47:33;;;;;;;105.60;55.05;;;4.00;99.90;;;;;;4962214;28;20074;-57
2022/03/26 05:49:59;;;;;;;108.85;54.75;;;4.10;99.90;;;;;;4945020;29;20167;-57
2022/03/26 05:52:25;;;;;;;107.57;56.35;;;4.10;99.90;;;;;;4961614;28;20062;-57
2022/03/26 05:54:50;;;;;;;112.55;54.05;;;4.10;99.90;;;;;;4961463;29;20051;-59
2022/03/26 05:57:17;;;;;;;102.60;52.70;;;4.20;99.90;;;;;;4959818;29;20439;-59
2022/03/26 05:59:43;;;;;;;97.72;50.70;;;4.10;99.90;;;;;;4962686;29;20396;-60
2022/03/26 06:02:11;;;;;;;104.82;53.30;;;4.20;99.90;;;;;;4961527;29;20051;-59
2022/03/26 06:04:37;;;;;;;103.22;52.45;;;4.20;99.90;;;;;;4961970;29;20054;-60
2022/03/26 06:07:02;;;;;;;106.28;52.45;;;4.20;99.90;;;;;;4961930;29;20082;-57
2022/03/26 06:09:28;;;;;;;98.10;51.00;;;4.10;99.90;;;;;;4959903;29;20051;-58
2022/03/26 06:11:55;;;;;;;97.22;49.42;;;4.20;99.90;;;;;;4962271;29;20087;-57
2022/03/26 06:14:21;;;;;;;100.68;50.22;;;4.30;99.90;;;;;;4960989;29;20086;-57
2022/03/26 06:16:47;;;;;;;99.82;49.92;;;4.20;99.90;;;;;;4960870;29;20059;-57
2022/03/26 06:19:14;;;;;;;96.55;48.25;;;4.30;99.90;;;;;;4961033;29;20050;-57
2022/03/26 06:21:40;;;;;;;103.07;50.72;;;4.40;99.90;;;;;;4960458;29;20035;-57
2022/03/26 06:24:06;;;;;;;109.47;54.28;;;4.40;99.90;;;;;;4961584;29;20043;-58
2022/03/26 06:26:32;;;;;;;110.90;54.22;;;4.50;99.90;;;;;;4961127;28;20051;-57
2022/03/26 06:28:57;;;;;;;114.85;56.60;;;4.50;99.90;;;;;;4957471;29;20558;-58
2022/03/26 06:31:24;;;;;;;120.20;58.65;;;4.60;99.90;;;;;;4955645;29;20086;-58
2022/03/26 06:33:50;;;;;;;116.00;54.20;;;4.70;99.90;;;;;;4958325;28;20082;-57
2022/03/26 06:36:18;;;;;;;113.93;56.60;;;4.70;99.90;;;;;;4956985;29;20043;-57
2022/03/26 06:38:44;;;;;;;130.38;61.55;;;4.80;99.90;;;;;;4957930;28;20038;-58
2022/03/26 06:41:11;;;;;;;123.22;58.70;;;4.80;99.90;;;;;;4955812;29;20054;-58
2022/03/26 06:43:41;;;;;;;113.80;55.72;;;4.90;99.90;;;;;;4956950;28;20637;-58
2022/03/26 06:46:07;;;;;;;118.60;57.53;;;4.90;99.90;;;;;;4956297;29;20517;-58
2022/03/26 06:48:33;;;;;;;124.78;57.55;;;5.00;99.90;;;;;;4956834;28;20107;-57
2022/03/26 06:51:01;;;;;;;124.20;59.42;;;5.00;99.90;;;;;;4958049;28;20043;-58
2022/03/26 06:53:30;;;;;;;113.75;55.72;;;5.20;99.90;;;;;;4956657;28;20051;-58
2022/03/26 06:55:57;;;;;;;113.03;55.55;;;5.20;99.90;;;;;;4956481;29;20059;-58
2022/03/26 06:58:23;;;;;;;113.20;54.67;;;5.20;99.90;;;;;;4957529;28;20040;-57
2022/03/26 07:00:49;;;;;;;114.43;54.35;;;5.30;99.90;;;;;;4956763;28;20048;-57
2022/03/26 07:03:15;;;;;;;120.80;59.28;;;5.40;99.90;;;;;;4957615;28;20106;-58
2022/03/26 07:05:41;;;;;;;121.30;57.70;;;5.60;99.90;;;;;;4955058;29;20059;-58
2022/03/26 07:08:07;;;;;;;120.82;59.60;;;5.60;99.90;;;;;;4957818;29;20049;-58
2022/03/26 07:10:33;;;;;;;125.53;60.15;;;5.60;99.90;;;;;;4956709;28;20480;-57
2022/03/26 07:12:58;;;;;;;116.97;55.40;;;5.70;99.90;;;;;;4957382;28;20082;-57
2022/03/26 07:15:24;;;;;;;126.05;60.42;;;6.00;99.90;;;;;;4956739;29;20078;-57
2022/03/26 07:17:50;;;;;;;125.75;62.50;;;6.00;99.90;;;;;;4956704;29;20593;-58
2022/03/26 07:20:15;;;;;;;120.97;59.85;;;6.10;99.90;;;;;;4957518;29;20058;-57
2022/03/26 07:22:42;;;;;;;119.30;58.83;;;6.10;99.90;;;;;;4956142;29;20051;-57
2022/03/26 07:25:09;;;;;;;121.93;58.95;;;6.10;99.90;;;;;;4957731;28;20043;-56
2022/03/26 07:27:36;;;;;;;122.45;59.75;;;6.20;99.90;;;;;;4956000;28;20079;-57
2022/03/26 07:30:04;;;;;;;124.43;60.25;;;6.40;99.90;;;;;;4957226;28;20094;-58
2022/03/26 07:32:30;;;;;;;115.60;56.72;;;6.60;99.90;;;;;;4956643;28;20043;-57
2022/03/26 07:34:57;;;;;;;123.30;58.35;;;6.80;99.90;;;;;;4956540;29;20577;-58
2022/03/26 07:37:23;;;;;;;122.45;59.05;;;7.00;99.90;;;;;;4957455;28;20049;-57
2022/03/26 07:39:49;;;;;;;128.52;58.78;;;7.00;99.90;;;;;;4955750;28;20063;-57
2022/03/26 07:42:14;;;;;;;125.32;59.50;;;7.30;99.90;;;;;;4957514;29;20047;-57
2022/03/26 07:44:40;;;;;;;126.13;59.80;;;7.40;99.90;;;;;;4956127;29;20070;-58
2022/03/26 07:47:06;;;;;;;128.50;61.58;;;7.50;99.90;;;;;;4957012;29;20051;-57
2022/03/26 07:49:32;;;;;;;121.70;59.30;;;7.90;99.90;;;;;;4956704;29;20055;-57
2022/03/26 07:51:58;;;;;;;113.70;55.58;;;7.90;99.90;;;;;;4956164;28;20056;-58
2022/03/26 07:54:24;;;;;;;119.55;57.03;;;8.10;99.90;;;;;;4955957;29;20078;-58
2022/03/26 07:56:49;;;;;;;114.70;56.42;;;8.20;99.90;;;;;;4956113;29;20035;-57
2022/03/26 07:59:15;;;;;;;104.22;51.08;;;8.40;99.90;;;;;;4957041;29;20047;-57
2022/03/26 08:01:41;;;;;;;112.47;56.17;;;8.50;99.90;;;;;;4955989;29;20055;-57
2022/03/26 08:04:07;;;;;;;110.65;55.65;;;8.70;99.90;;;;;;4956729;28;20047;-57
2022/03/26 08:06:32;;;;;;;103.57;51.25;;;8.80;99.90;;;;;;4960066;28;20075;-56
2022/03/26 08:08:58;;;;;;;106.57;52.22;;;8.80;99.90;;;;;;4960430;28;20050;-58
2022/03/26 08:11:24;;;;;;;93.07;48.22;;;8.90;99.90;;;;;;4960745;28;20039;-57
2022/03/26 08:13:49;;;;;;;88.32;48.00;;;9.10;99.90;;;;;;4960315;29;20043;-58
2022/03/26 08:16:16;;;;;;;92.75;47.33;;;9.20;99.90;;;;;;4963363;28;20126;-57
2022/03/26 08:18:44;;;;;;;87.70;47.92;;;9.30;99.90;;;;;;4963106;29;20103;-58
2022/03/26 08:21:10;;;;;;;86.55;47.58;;;9.40;99.90;;;;;;4964348;28;20047;-57
2022/03/26 08:23:36;;;;;;;93.75;50.13;;;9.50;99.90;;;;;;4963032;28;20043;-57
2022/03/26 08:28:48;;;;;;;92.15;49.90;;;9.80;99.90;;;;;;4964132;29;20412;-58
2022/03/26 08:31:14;;;;;;;91.25;49.60;;;9.90;99.90;;;;;;4962573;28;20071;-58
2022/03/26 08:33:40;;;;;;;93.75;50.08;;;10.10;99.90;;;;;;4964086;29;20105;-58
2022/03/26 08:36:06;;;;;;;91.82;51.13;;;10.10;99.90;;;;;;4962808;29;20082;-57
2022/03/26 08:38:32;;;;;;;84.78;47.10;;;10.20;99.90;;;;;;4963954;29;20047;-58
2022/03/26 08:40:58;;;;;;;89.38;49.35;;;10.30;99.90;;;;;;4962953;28;20046;-57
2022/03/26 08:43:24;;;;;;;92.85;49.97;;;10.30;99.90;;;;;;4963030;29;20031;-57
2022/03/26 08:45:50;;;;;;;81.68;46.15;;;10.50;99.90;;;;;;4954188;28;20064;-58
2022/03/26 08:48:16;;;;;;;79.30;45.90;;;10.60;99.90;;;;;;4951719;29;20047;-58
2022/03/26 08:50:42;;;;;;;80.93;46.13;;;10.70;99.90;;;;;;4944682;29;20114;-58
2022/03/26 08:53:09;;;;;;;80.13;45.45;;;10.80;99.90;;;;;;4945758;29;20040;-58
2022/03/26 08:55:34;;;;;;;78.57;44.83;;;10.80;99.90;;;;;;4957412;29;20046;-57
2022/03/26 08:58:00;;;;;;;80.00;44.53;;;10.80;99.90;;;;;;4962697;28;20043;-58
2022/03/26 09:00:27;;;;;;;70.43;41.00;;;10.90;99.90;;;;;;4961465;29;20035;-58
2022/03/26 09:02:53;;;;;;;72.65;43.05;;;11.00;99.90;;;;;;4963069;28;20054;-58
2022/03/26 09:05:19;;;;;;;69.05;40.40;;;11.10;99.90;;;;;;4962234;28;20039;-58
2022/03/26 09:07:45;;;;;;;67.45;40.10;;;11.20;99.90;;;;;;4963298;29;20047;-58
2022/03/26 09:10:11;;;;;;;60.58;38.55;;;11.40;99.90;;;;;;4962015;28;20415;-58
2022/03/26 09:12:37;;;;;;;61.83;37.20;;;11.50;99.90;;;;;;4963281;28;20043;-57
2022/03/26 09:15:06;;;;;;;55.20;33.88;;;11.50;99.90;;;;;;4962184;28;20051;-58
2022/03/26 09:17:32;;;;;;;56.17;33.50;;;11.60;99.90;;;;;;4962040;28;20074;-58
2022/03/26 09:19:58;;;;;;;60.22;35.13;;;11.70;99.90;;;;;;4962456;28;20047;-58
2022/03/26 09:22:24;;;;;;;51.80;30.15;;;11.70;99.90;;;;;;4961992;28;20054;-58
2022/03/26 09:24:50;;;;;;;49.30;29.77;;;11.90;99.90;;;;;;4962823;29;20120;-58
2022/03/26 09:27:16;;;;;;;49.60;29.02;;;11.90;99.90;;;;;;4961768;29;20055;-59
2022/03/26 09:29:41;;;;;;;49.03;27.00;;;11.90;99.90;;;;;;4962296;28;20091;-57
2022/03/26 09:32:07;;;;;;;43.88;25.67;;;12.00;99.90;;;;;;4961336;29;20064;-58
2022/03/26 09:34:33;;;;;;;45.72;28.10;;;12.10;99.90;;;;;;4961963;28;20047;-58
2022/03/26 09:36:59;;;;;;;45.38;27.83;;;12.20;99.90;;;;;;4962251;29;20355;-58
2022/03/26 09:39:25;;;;;;;43.65;25.92;;;12.30;99.90;;;;;;4960633;28;20134;-58
2022/03/26 09:41:51;;;;;;;49.75;28.42;;;12.30;99.90;;;;;;4962080;29;20048;-57
2022/03/26 09:44:17;;;;;;;44.00;27.50;;;12.30;99.90;;;;;;4959451;29;20043;-58
2022/03/26 09:46:43;;;;;;;42.70;24.55;;;12.40;99.90;;;;;;4961798;29;20047;-58
2022/03/26 09:49:11;;;;;;;46.33;27.17;;;12.40;99.90;;;;;;4961348;29;20046;-58
2022/03/26 09:51:37;;;;;;;38.53;24.65;;;12.70;99.90;;;;;;4961214;28;20039;-58
2022/03/26 09:54:03;;;;;;;43.08;26.70;;;12.70;99.90;;;;;;4961356;28;20111;-57
2022/03/26 09:56:29;;;;;;;38.85;23.35;;;12.80;99.90;;;;;;4959672;29;20062;-57
2022/03/26 09:58:56;;;;;;;43.15;24.58;;;12.80;99.90;;;;;;4962012;28;20126;-57
2022/03/26 10:01:23;;;;;;;40.10;23.88;;;12.90;99.90;;;;;;4960541;28;20054;-58
2022/03/26 10:04:08;;;;;;;32.10;18.67;;;13.00;99.90;;;;;;4953786;29;20078;-58
2022/03/26 10:06:34;;;;;;;27.08;15.88;;;13.10;99.90;;;;;;4942129;29;20039;-59
2022/03/26 10:09:00;;;;;;;25.58;16.38;;;13.10;99.90;;;;;;4947486;29;20047;-57
2022/03/26 10:11:32;;;;;;;30.45;18.23;;;13.10;99.90;;;;;;4952619;29;20054;-57
2022/03/26 10:13:58;;;;;;;25.95;15.35;;;13.30;99.90;;;;;;4951203;29;20047;-58
2022/03/26 10:16:24;;;;;;;32.88;18.73;;;13.30;99.90;;;;;;4951444;29;20123;-58
2022/03/26 10:18:53;;;;;;;26.80;16.23;;;13.40;99.90;;;;;;4949952;29;20087;-58
2022/03/26 10:21:21;;;;;;;23.98;14.02;;;13.50;99.90;;;;;;4952021;28;20043;-58
2022/03/26 10:23:49;;;;;;;20.85;13.07;;;13.70;99.90;;;;;;4958016;28;20095;-58
2022/03/26 10:26:23;;;;;;;18.75;9.95;;;13.60;99.90;;;;;;4941600;29;20051;-58
2022/03/26 10:28:51;;;;;;;16.88;8.02;;;13.50;99.90;;;;;;4942117;29;20079;-58
2022/03/26 10:34:15;;;;;;;11.77;6.40;;;13.50;99.90;;;;;;4942412;29;20055;-58
2022/03/26 10:36:45;;;;;;;13.07;6.85;;;13.50;99.90;;;;;;4941642;29;20047;-57
2022/03/26 10:39:21;;;;;;;14.45;6.60;;;13.50;99.90;;;;;;4941103;29;20488;-59
2022/03/26 10:41:49;;;;;;;11.80;6.60;;;13.50;99.90;;;;;;4942273;29;20192;-58
2022/03/26 10:44:17;;;;;;;14.63;7.35;;;13.50;99.90;;;;;;4923953;29;20139;-58
2022/03/26 10:46:47;;;;;;;13.70;7.18;;;13.70;99.90;;;;;;4941936;29;20103;-58
2022/03/26 10:49:23;;;;;;;13.05;7.15;;;13.70;99.90;;;;;;4941192;29;20170;-57
2022/03/26 10:51:49;;;;;;;14.82;7.55;;;13.90;99.90;;;;;;4941530;29;20071;-58
2022/03/26 10:54:16;;;;;;;12.05;6.53;;;13.80;99.90;;;;;;4940315;29;20044;-57
2022/03/26 10:56:42;;;;;;;13.05;5.63;;;13.80;99.90;;;;;;4939219;29;20081;-58
2022/03/26 10:59:08;;;;;;;11.05;6.10;;;13.90;99.90;;;;;;4941881;29;20036;-58
2022/03/26 11:01:35;;;;;;;9.98;6.47;;;13.80;99.90;;;;;;4945201;29;20057;-58
2022/03/26 11:04:01;;;;;;;12.10;5.93;;;13.90;99.90;;;;;;4950176;28;20051;-58
2022/03/26 11:06:27;;;;;;;13.18;7.18;;;14.00;99.90;;;;;;4948225;28;20056;-58
2022/03/26 11:09:01;;;;;;;11.07;6.53;;;13.80;99.90;;;;;;4950295;28;20039;-58
2022/03/26 11:11:28;;;;;;;11.80;6.00;;;13.90;99.90;;;;;;4950824;29;20043;-58
2022/03/26 11:14:00;;;;;;;9.48;5.45;;;13.80;99.90;;;;;;4944960;29;20685;-58
2022/03/26 11:16:28;;;;;;;10.38;4.97;;;13.80;99.90;;;;;;4942521;28;20071;-57
2022/03/26 11:19:26;;;;;;;9.27;5.13;;;13.80;99.90;;;;;;4940603;29;20051;-57
2022/03/26 11:22:40;;;;;;;8.95;4.38;;;13.90;99.90;;;;;;4941024;29;20086;-57
2022/03/26 11:25:40;;;;;;;10.00;4.93;;;14.00;99.90;;;;;;4939026;29;20052;-58
2022/03/26 11:28:18;;;;;;;8.70;5.45;;;14.00;99.90;;;;;;4959995;29;20051;-57
2022/03/26 11:31:12;;;;;;;9.82;5.00;;;14.00;99.90;;;;;;4959655;28;20052;-58
2022/03/26 11:33:38;;;;;;;9.30;4.70;;;14.10;99.90;;;;;;4960986;28;20051;-58
2022/03/26 11:36:08;;;;;;;8.30;4.32;;;14.00;99.90;;;;;;4959411;29;20048;-58
2022/03/26 11:38:34;;;;;;;9.35;4.30;;;14.00;99.90;;;;;;4959474;28;20050;-58
2022/03/26 11:41:08;;;;;;;8.55;4.10;;;14.00;99.90;;;;;;4963027;28;20106;-57
2022/03/26 11:43:43;;;;;;;7.95;3.58;;;14.10;99.90;;;;;;4963460;28;20576;-58
2022/03/26 11:51:57;;;;;;;8.93;3.72;;;14.10;99.90;;;;;;4963492;29;20109;-61
2022/03/26 11:54:23;;;;;;;7.30;3.72;;;14.20;99.90;;;;;;4950195;28;20055;-56
2022/03/26 11:57:11;;;;;;;9.85;4.53;;;14.30;99.90;;;;;;4943465;29;20099;-58
2022/03/26 11:59:38;;;;;;;9.40;5.47;;;14.30;99.90;;;;;;4945346;29;20054;-57
2022/03/26 12:02:21;;;;;;;8.55;4.78;;;14.40;99.90;;;;;;4944402;29;20047;-58
2022/03/26 12:08:29;;;;;;;12.57;6.22;;;14.60;99.90;;;;;;4951014;28;20058;-58
2022/03/26 12:10:54;;;;;;;;;;;14.40;99.90;;;;;;4946802;29;20048;-58
2022/03/26 12:13:21;;;;;;;10.32;5.80;;;14.70;99.90;;;;;;4943877;29;19934;-58
2022/03/26 12:16:06;;;;;;;9.32;5.15;;;14.60;99.90;;;;;;4944561;29;20741;-58
2022/03/26 12:18:34;;;;;;;10.48;5.18;;;14.60;99.90;;;;;;4940867;29;20044;-58
2022/03/26 12:21:19;;;;;;;10.02;5.28;;;14.70;99.90;;;;;;4944437;29;20066;-58
2022/03/26 12:23:44;;;;;;;9.05;4.32;;;14.60;99.90;;;;;;4945951;29;20049;-55
2022/03/26 12:26:10;;;;;;;11.52;5.13;;;14.80;99.90;;;;;;4961677;28;20078;-58
2022/03/26 12:28:38;;;;;;;12.82;5.75;;;14.70;99.90;;;;;;4962080;29;20070;-58
2022/03/26 12:31:09;;;;;;;10.13;5.00;;;14.80;99.90;;;;;;4962462;29;20148;-58
2022/03/26 12:33:48;;;;;;;11.43;6.88;;;15.00;99.90;;;;;;4963885;28;20123;-59
2022/03/26 12:36:17;;;;;;;11.85;5.63;;;14.90;99.90;;;;;;4962298;29;20046;-58
2022/03/26 12:38:53;;;;;;;9.45;5.65;;;14.80;99.90;;;;;;4962938;29;20086;-57
2022/03/26 12:41:19;;;;;;;11.80;5.82;;;14.80;99.90;;;;;;4961088;29;20798;-59
2022/03/26 12:43:56;;;;;;;11.55;5.75;;;14.70;99.90;;;;;;4961401;29;20074;-57
2022/03/26 12:46:29;;;;;;;15.70;11.00;;;14.70;99.90;;;;;;4962749;28;20047;-57